createdAt,value
2023-05-25T00:01:49.304Z,13.00
2023-05-25T00:06:51.341Z,13.00
2023-05-25T00:11:53.184Z,13.10
2023-05-25T00:16:55.388Z,13.00
2023-05-25T00:21:57.519Z,13.10
2023-05-25T00:26:59.520Z,13.10
2023-05-25T00:32:01.481Z,13.00
2023-05-25T00:37:03.370Z,12.90
2023-05-25T00:42:07.211Z,12.90
2023-05-25T00:47:09.077Z,12.90
2023-05-25T00:52:13.091Z,13.00
2023-05-25T00:57:16.776Z,13.00
2023-05-25T01:02:20.131Z,13.00
2023-05-25T01:07:25.311Z,13.10
2023-05-25T01:12:30.369Z,12.90
2023-05-25T01:17:32.361Z,12.70
2023-05-25T01:22:43.330Z,12.50
2023-05-25T01:27:49.292Z,12.60
2023-05-25T01:32:51.454Z,12.70
2023-05-25T01:37:53.508Z,12.60
2023-05-25T01:42:55.611Z,12.50
2023-05-25T01:48:10.174Z,12.50
2023-05-25T01:53:28.436Z,12.60
2023-05-25T01:58:35.550Z,12.70
2023-05-25T02:03:39.500Z,12.70
2023-05-25T02:08:41.388Z,12.60
2023-05-25T02:13:43.184Z,12.70
2023-05-25T02:18:45.931Z,12.80
2023-05-25T02:23:47.836Z,12.80
2023-05-25T02:28:51.271Z,12.80
2023-05-25T02:33:53.105Z,12.80
2023-05-25T02:38:54.896Z,12.90
2023-05-25T02:43:56.770Z,12.90
2023-05-25T02:48:59.599Z,12.90
2023-05-25T02:54:01.368Z,12.80
2023-05-25T02:59:03.165Z,12.80
2023-05-25T03:04:05.138Z,12.70
2023-05-25T03:09:07.408Z,12.70
2023-05-25T03:14:11.148Z,12.60
2023-05-25T03:19:12.916Z,12.60
2023-05-25T03:24:14.634Z,12.50
2023-05-25T03:29:16.439Z,12.40
2023-05-25T03:34:18.471Z,12.40
2023-05-25T03:39:22.158Z,12.40
2023-05-25T03:44:24.014Z,12.40
2023-05-25T03:49:25.736Z,12.40
2023-05-25T03:54:28.000Z,12.40
2023-05-25T03:59:30.856Z,12.50
2023-05-25T04:04:32.606Z,12.50
2023-05-25T04:09:34.480Z,12.50
2023-05-25T04:14:36.232Z,12.50
2023-05-25T04:19:38.013Z,12.50
2023-05-25T04:24:39.791Z,12.60
2023-05-25T04:29:41.953Z,12.30
2023-05-25T04:34:46.774Z,12.30
2023-05-25T04:39:48.889Z,12.20
2023-05-25T04:44:53.311Z,12.30
2023-05-25T04:49:55.113Z,12.30
2023-05-25T04:54:56.870Z,12.40
2023-05-25T04:59:59.058Z,12.40
2023-05-25T05:05:00.817Z,12.40
2023-05-25T05:10:02.649Z,12.40
2023-05-25T05:15:04.782Z,12.30
2023-05-25T05:20:08.891Z,12.40
2023-05-25T05:25:10.884Z,12.40
2023-05-25T05:30:12.759Z,12.50
2023-05-25T05:35:14.628Z,12.60
2023-05-25T05:40:16.424Z,12.60
2023-05-25T05:45:18.322Z,12.70
2023-05-25T05:50:20.119Z,12.70
2023-05-25T05:55:21.974Z,12.80
2023-05-25T06:00:24.632Z,13.00
2023-05-25T06:05:26.493Z,13.20
2023-05-25T06:10:28.257Z,13.20
2023-05-25T06:15:29.954Z,13.30
2023-05-25T06:20:31.873Z,13.30
2023-05-25T06:25:33.623Z,13.40
2023-05-25T06:30:35.560Z,13.60
2023-05-25T06:35:37.365Z,13.70
2023-05-25T06:40:39.129Z,14.10
2023-05-25T06:45:40.879Z,14.30
2023-05-25T06:50:42.970Z,14.40
2023-05-25T06:55:45.124Z,14.60
2023-05-25T07:00:47.131Z,14.70
2023-05-25T07:05:49.263Z,15.00
2023-05-25T07:10:51.031Z,14.90
2023-05-25T07:15:52.873Z,14.80
2023-05-25T07:20:54.688Z,14.90
2023-05-25T07:25:56.386Z,15.10
2023-05-25T07:30:58.080Z,15.20
2023-05-25T07:35:59.852Z,15.20
2023-05-25T07:41:01.637Z,15.40
2023-05-25T07:46:03.340Z,15.90
2023-05-25T07:51:05.157Z,16.10
2023-05-25T07:56:09.775Z,16.30
2023-05-25T08:01:12.304Z,15.90
2023-05-25T08:06:14.063Z,16.10
2023-05-25T08:11:19.705Z,16.70
2023-05-25T08:16:21.471Z,17.50
2023-05-25T08:21:23.289Z,17.50
2023-05-25T08:26:38.368Z,17.40
2023-05-25T08:31:45.746Z,17.40
2023-05-25T08:36:47.718Z,17.60
2023-05-25T08:41:50.995Z,18.00
2023-05-25T08:46:56.318Z,18.50
2023-05-25T08:51:58.506Z,18.80
2023-05-25T08:57:23.713Z,19.20
2023-05-25T09:03:02.339Z,19.60
2023-05-25T09:08:06.702Z,19.60
2023-05-25T09:13:21.410Z,19.40
2023-05-25T09:18:24.712Z,19.50
2023-05-25T09:23:26.558Z,20.00
2023-05-25T09:28:28.302Z,20.80
2023-05-25T09:33:30.807Z,21.00
2023-05-25T09:38:33.496Z,21.10
2023-05-25T09:43:44.668Z,21.60
2023-05-25T09:48:50.298Z,21.80
2023-05-25T09:53:52.088Z,22.20
2023-05-25T09:58:54.240Z,22.50
2023-05-25T10:04:04.813Z,22.60
2023-05-25T10:09:11.202Z,22.80
2023-05-25T10:14:17.371Z,22.70
2023-05-25T10:19:42.802Z,22.70
2023-05-25T10:25:22.064Z,23.10
2023-05-25T10:30:26.629Z,23.30
2023-05-25T10:35:30.049Z,23.70
2023-05-25T10:40:34.389Z,23.90
2023-05-25T10:45:36.726Z,24.00
2023-05-25T10:50:38.528Z,24.10
2023-05-25T10:56:01.038Z,24.20
2023-05-25T11:01:06.079Z,23.80
2023-05-25T11:06:09.105Z,24.40
2023-05-25T11:11:10.957Z,24.40
2023-05-25T11:16:13.854Z,24.10
2023-05-25T11:21:21.341Z,24.60
2023-05-25T11:26:27.967Z,25.20
2023-05-25T11:31:36.028Z,25.50
2023-05-25T11:36:42.553Z,25.40
2023-05-25T11:42:01.984Z,25.60
2023-05-25T11:47:13.298Z,25.90
2023-05-25T11:52:17.008Z,25.80
2023-05-25T11:57:26.202Z,25.90
2023-05-25T12:02:28.335Z,24.10
2023-05-25T12:07:31.315Z,24.60
2023-05-25T12:12:47.377Z,25.30
2023-05-25T12:17:50.247Z,25.30
2023-05-25T12:22:52.248Z,25.50
2023-05-25T12:28:16.086Z,25.70
2023-05-25T12:33:17.828Z,26.00
2023-05-25T12:38:21.926Z,26.00
2023-05-25T12:43:23.825Z,25.80
2023-05-25T12:48:28.499Z,26.30
2023-05-25T12:53:31.238Z,26.60
2023-05-25T12:58:33.169Z,26.70
2023-05-25T13:03:34.931Z,26.40
2023-05-25T13:08:36.853Z,26.90
2023-05-25T13:13:38.561Z,26.50
2023-05-25T13:18:40.460Z,26.60
2023-05-25T13:23:42.339Z,26.20
2023-05-25T13:28:44.094Z,26.50
2023-05-25T13:33:46.131Z,26.00
2023-05-25T13:38:47.895Z,25.70
2023-05-25T13:43:49.639Z,26.00
2023-05-25T13:48:51.394Z,26.10
2023-05-25T13:53:53.529Z,25.90
2023-05-25T13:58:55.391Z,26.50
2023-05-25T14:03:58.299Z,26.70
2023-05-25T14:09:00.352Z,27.00
2023-05-25T14:14:02.381Z,26.70
2023-05-25T14:19:04.767Z,27.30
2023-05-25T14:24:06.875Z,27.30
2023-05-25T14:29:09.496Z,27.00
2023-05-25T14:34:12.263Z,26.60
2023-05-25T14:39:16.996Z,26.00
2023-05-25T14:44:19.150Z,25.70
2023-05-25T14:49:25.015Z,25.90
2023-05-25T14:54:26.824Z,25.40
2023-05-25T14:59:28.594Z,25.60
2023-05-25T15:04:31.639Z,25.30
2023-05-25T15:09:33.932Z,25.30
2023-05-25T15:14:39.825Z,25.60
2023-05-25T15:19:41.564Z,25.80
2023-05-25T15:24:43.339Z,26.00
2023-05-25T15:29:46.107Z,25.80
2023-05-25T15:34:47.826Z,25.80
2023-05-25T15:39:49.611Z,25.50
2023-05-25T15:44:51.360Z,25.80
2023-05-25T15:49:53.104Z,25.80
2023-05-25T15:54:54.845Z,26.50
2023-05-25T15:59:56.597Z,26.40
2023-05-25T16:04:58.462Z,26.30
2023-05-25T16:10:00.307Z,25.80
2023-05-25T16:15:02.183Z,25.80
2023-05-25T16:20:04.705Z,26.00
2023-05-25T16:25:07.188Z,26.20
2023-05-25T16:30:11.049Z,26.00
2023-05-25T16:35:14.281Z,25.90
2023-05-25T16:40:16.474Z,25.30
2023-05-25T16:45:20.591Z,25.30
2023-05-25T16:50:22.359Z,25.50
2023-05-25T16:55:24.308Z,25.60
2023-05-25T17:00:26.031Z,25.30
2023-05-25T17:05:27.772Z,25.60
2023-05-25T17:10:29.523Z,25.50
2023-05-25T17:15:31.640Z,25.20
2023-05-25T17:20:33.474Z,25.40
2023-05-25T17:25:35.343Z,25.40
2023-05-25T17:30:37.081Z,25.40
2023-05-25T17:35:38.766Z,24.80
2023-05-25T17:40:40.560Z,24.70
2023-05-25T17:45:42.387Z,24.70
2023-05-25T17:50:44.213Z,24.60
2023-05-25T17:55:46.130Z,24.20
2023-05-25T18:00:48.322Z,24.40
2023-05-25T18:05:50.098Z,23.90
2023-05-25T18:10:52.910Z,23.90
2023-05-25T18:15:54.727Z,23.90
2023-05-25T18:20:56.499Z,23.60
2023-05-25T18:25:58.271Z,23.60
2023-05-25T18:30:59.991Z,23.40
2023-05-25T18:36:01.774Z,23.20
2023-05-25T18:41:03.683Z,23.00
2023-05-25T18:46:05.651Z,22.90
2023-05-25T18:51:07.415Z,22.80
2023-05-25T18:56:09.239Z,22.60
2023-05-25T19:01:11.134Z,22.30
2023-05-25T19:06:12.930Z,22.10
2023-05-25T19:11:15.588Z,22.00
2023-05-25T19:16:17.364Z,21.70
2023-05-25T19:21:19.233Z,21.60
2023-05-25T19:26:21.018Z,21.50
2023-05-25T19:31:23.546Z,21.30
2023-05-25T19:36:25.815Z,21.10
2023-05-25T19:41:27.832Z,20.80
2023-05-25T19:46:29.791Z,20.30
2023-05-25T19:51:33.055Z,20.30
2023-05-25T19:56:35.023Z,20.00
2023-05-25T20:01:36.883Z,19.90
2023-05-25T20:06:38.776Z,19.70
2023-05-25T20:11:41.626Z,19.40
2023-05-25T20:16:43.501Z,19.20
2023-05-25T20:21:45.317Z,19.10
2023-05-25T20:26:47.119Z,18.80
2023-05-25T20:31:49.219Z,18.50
2023-05-25T20:36:51.140Z,18.30
2023-05-25T20:41:52.880Z,18.00
2023-05-25T20:46:54.818Z,17.80
2023-05-25T20:51:56.654Z,17.70
2023-05-25T20:56:58.446Z,17.50
2023-05-25T21:02:00.515Z,17.50
2023-05-25T21:07:02.388Z,17.30
2023-05-25T21:12:04.465Z,17.10
2023-05-25T21:17:06.250Z,17.10
2023-05-25T21:22:08.033Z,16.90
2023-05-25T21:27:09.954Z,16.90
2023-05-25T21:32:11.774Z,17.00
2023-05-25T21:37:13.484Z,16.70
2023-05-25T21:42:15.333Z,16.40
2023-05-25T21:47:17.134Z,16.30
2023-05-25T21:52:19.314Z,16.10
2023-05-25T21:57:21.079Z,16.00
2023-05-25T22:02:23.591Z,15.90
2023-05-25T22:07:25.460Z,16.00
2023-05-25T22:12:27.190Z,15.80
2023-05-25T22:17:28.953Z,15.90
2023-05-25T22:22:32.220Z,15.80
2023-05-25T22:27:34.723Z,15.70
2023-05-25T22:32:36.818Z,15.70
2023-05-25T22:37:38.647Z,15.70
2023-05-25T22:42:40.553Z,15.70
2023-05-25T22:47:42.372Z,15.70
2023-05-25T22:52:44.133Z,15.60
2023-05-25T22:57:45.943Z,15.50
2023-05-25T23:02:47.741Z,15.30
2023-05-25T23:07:49.600Z,15.20
2023-05-25T23:12:51.481Z,15.20
2023-05-25T23:17:53.370Z,15.20
2023-05-25T23:22:55.183Z,15.10
2023-05-25T23:27:56.896Z,15.00
2023-05-25T23:32:59.978Z,14.90
2023-05-25T23:38:01.883Z,14.90
2023-05-25T23:43:04.054Z,14.40
2023-05-25T23:48:05.895Z,14.30
2023-05-25T23:53:07.681Z,14.50
2023-05-25T23:58:09.400Z,14.60
